Time;durP1;ratioP1;P1;durP2;ratioP2;P2;SDS_P1;SDS_P2;PMS_P1;PMS_P2;Temp;Humidity;BMP_temperature;BMP_pressure;BME280_temperature;BME280_humidity;BME280_pressure;Samples;Min_cycle;Max_cycle;Signal;HPM_P1;HPM_P2
2023/06/21 00:02:55;;;;;;;6.90;6.20;;;22.20;1.00;;;;;;12631815;23;20195;-79
2023/06/21 00:08:16;;;;;;;6.38;5.78;;;22.10;1.00;;;;;;12632446;23;20163;-79
2023/06/21 00:13:37;;;;;;;8.70;6.57;;;22.10;1.00;;;;;;12627605;23;20197;-80
2023/06/21 00:18:59;;;;;;;10.25;7.22;;;22.00;1.00;;;;;;12627678;23;20163;-81
2023/06/21 00:24:20;;;;;;;11.07;7.35;;;22.10;1.00;;;;;;12627380;23;20191;-83
2023/06/21 00:29:41;;;;;;;8.43;6.63;;;22.10;99.90;;;;;;12630697;23;20453;-86
2023/06/21 00:35:03;;;;;;;6.80;6.20;;;22.00;1.00;;;;;;12628886;23;20150;-94
2023/06/21 00:40:25;;;;;;;7.88;5.97;;;22.10;1.00;;;;;;12628805;23;20163;-83
2023/06/21 00:45:48;;;;;;;6.35;5.75;;;22.10;99.90;;;;;;12586202;23;20297;-85
2023/06/21 00:51:13;;;;;;;6.93;6.15;;;22.10;99.90;;;;;;12626440;23;20171;-80
2023/06/21 00:56:35;;;;;;;7.20;6.47;;;22.10;99.90;;;;;;12606567;23;20174;-83
2023/06/21 01:01:58;;;;;;;7.95;6.80;;;22.10;99.90;;;;;;12605970;23;20203;-83
2023/06/21 01:07:45;;;;;;;8.98;6.88;;;22.10;99.90;;;;;;12626693;23;20500;-83
2023/06/21 01:13:07;;;;;;;7.22;6.40;;;22.10;99.90;;;;;;12626578;23;20208;-79
2023/06/21 01:18:29;;;;;;;8.20;7.10;;;22.10;99.90;;;;;;12626691;23;20170;-79
2023/06/21 01:24:22;;;;;;;7.68;6.88;;;22.00;99.90;;;;;;12628001;23;20221;-81
2023/06/21 01:29:47;;;;;;;9.07;6.78;;;22.00;99.90;;;;;;12632600;23;20173;-79
2023/06/21 01:35:11;;;;;;;7.57;6.78;;;22.00;99.90;;;;;;12608841;23;20196;-78
2023/06/21 01:40:37;;;;;;;8.02;6.57;;;22.00;99.90;;;;;;12628881;23;20163;-89
2023/06/21 01:46:00;;;;;;;7.97;7.18;;;22.00;99.90;;;;;;12628224;23;20191;-79
2023/06/21 01:51:22;;;;;;;11.02;7.47;;;21.90;99.90;;;;;;12629404;23;20229;-80
2023/06/21 01:56:47;;;;;;;10.20;7.43;;;21.90;99.90;;;;;;12608527;23;20181;-83
2023/06/21 02:02:08;;;;;;;8.98;7.90;;;21.80;99.90;;;;;;12607708;23;20190;-80
2023/06/21 02:07:30;;;;;;;11.38;8.23;;;21.80;99.90;;;;;;12628684;23;20151;-85
2023/06/21 02:12:54;;;;;;;7.00;6.30;;;21.70;1.00;;;;;;12608366;23;20170;-82
2023/06/21 02:18:16;;;;;;;9.85;8.18;;;21.70;1.00;;;;;;12587503;23;20246;-80
2023/06/21 02:23:39;;;;;;;10.93;7.53;;;21.60;1.00;;;;;;12629429;23;20183;-85
2023/06/21 02:29:04;;;;;;;8.63;7.82;;;21.60;1.00;;;;;;12609280;23;20178;-79
2023/06/21 02:34:25;;;;;;;8.52;7.45;;;21.60;1.00;;;;;;12628718;23;20174;-83
2023/06/21 02:39:47;;;;;;;8.30;7.47;;;21.60;1.00;;;;;;12630703;23;20177;-89
2023/06/21 02:45:09;;;;;;;8.68;7.75;;;21.50;1.00;;;;;;12589241;23;20218;-94
2023/06/21 02:50:31;;;;;;;9.02;8.07;;;21.50;1.00;;;;;;12630800;23;20258;-85
2023/06/21 02:55:53;;;;;;;8.23;7.22;;;21.40;1.00;;;;;;12629766;23;20444;-86
2023/06/21 03:01:16;;;;;;;11.70;7.00;;;21.50;1.00;;;;;;12628956;23;20266;-91
2023/06/21 03:06:38;;;;;;;8.75;7.95;;;21.50;1.00;;;;;;12631827;23;20257;-87
2023/06/21 03:12:03;;;;;;;7.93;7.10;;;21.50;1.00;;;;;;12633335;23;20186;-83
2023/06/21 03:17:26;;;;;;;11.85;8.60;;;21.50;1.00;;;;;;12617342;23;20171;-89
2023/06/21 03:22:49;;;;;;;9.45;8.32;;;21.50;99.90;;;;;;12610376;23;20383;-87
2023/06/21 03:28:11;;;;;;;9.27;7.68;;;21.60;99.90;;;;;;12609582;23;20167;-86
2023/06/21 03:33:32;;;;;;;13.50;9.95;;;21.60;99.90;;;;;;12629938;23;20469;-86
2023/06/21 03:38:54;;;;;;;9.52;8.55;;;21.50;1.00;;;;;;12589329;23;20178;-85
2023/06/21 03:44:16;;;;;;;10.98;9.18;;;21.60;1.00;;;;;;12588609;23;20205;-84
2023/06/21 03:49:38;;;;;;;9.75;8.30;;;21.60;1.00;;;;;;12630071;23;20183;-86
2023/06/21 03:55:00;;;;;;;10.18;8.75;;;21.70;99.90;;;;;;12609707;23;20321;-86
2023/06/21 04:00:22;;;;;;;12.05;10.07;;;21.70;99.90;;;;;;12629159;23;20402;-84
2023/06/21 04:05:45;;;;;;;9.30;8.40;;;21.80;99.90;;;;;;12629424;23;20444;-86
2023/06/21 04:11:06;;;;;;;9.63;8.20;;;21.70;99.90;;;;;;12589088;23;20171;-87
2023/06/21 04:16:28;;;;;;;10.07;8.43;;;21.60;99.90;;;;;;12630341;23;20355;-91
2023/06/21 04:21:49;;;;;;;11.38;9.18;;;21.70;99.90;;;;;;12628873;23;20363;-84
2023/06/21 04:27:12;;;;;;;13.00;8.75;;;21.60;1.00;;;;;;12627607;23;20191;-78
2023/06/21 04:32:33;;;;;;;10.63;8.57;;;21.70;1.00;;;;;;12627632;23;20174;-82
2023/06/21 04:37:55;;;;;;;12.02;9.98;;;21.80;1.00;;;;;;12606655;23;20193;-80
2023/06/21 04:43:16;;;;;;;12.30;9.98;;;21.70;1.00;;;;;;12626790;23;20189;-78
2023/06/21 04:48:37;;;;;;;10.18;8.60;;;21.70;1.00;;;;;;12628346;23;20162;-80
2023/06/21 04:53:59;;;;;;;15.25;9.23;;;21.90;1.00;;;;;;12626838;23;20246;-78
2023/06/21 04:59:21;;;;;;;9.43;8.52;;;21.80;1.00;;;;;;12626642;23;20187;-82
2023/06/21 05:04:42;;;;;;;11.13;9.82;;;21.80;1.00;;;;;;12606946;23;20262;-78
2023/06/21 05:10:08;;;;;;;13.07;10.30;;;21.90;1.00;;;;;;12627249;23;20163;-81
2023/06/21 05:15:30;;;;;;;10.20;8.80;;;22.00;99.90;;;;;;12606391;23;20174;-79
2023/06/21 05:20:51;;;;;;;10.98;8.77;;;22.10;99.90;;;;;;12605865;23;20262;-78
2023/06/21 05:26:12;;;;;;;12.73;10.43;;;22.20;99.90;;;;;;12625238;23;20198;-81
2023/06/21 05:31:34;;;;;;;12.80;9.95;;;22.30;61.50;;;;;;12627400;23;20163;-80
2023/06/21 05:36:55;;;;;;;11.52;10.38;;;22.50;1.00;;;;;;12626471;23;20517;-81
2023/06/21 05:42:16;;;;;;;11.02;9.43;;;22.70;1.00;;;;;;12605074;23;20190;-79
2023/06/21 05:47:37;;;;;;;12.15;9.65;;;22.80;1.00;;;;;;12625869;23;20233;-79
2023/06/21 05:52:59;;;;;;;14.90;10.35;;;22.90;1.00;;;;;;12625692;23;20350;-79
2023/06/21 05:58:21;;;;;;;12.52;10.60;;;23.00;1.00;;;;;;12625531;23;20174;-81
2023/06/21 06:03:42;;;;;;;13.05;10.68;;;23.20;99.90;;;;;;12625795;23;20190;-82
2023/06/21 06:09:04;;;;;;;12.35;10.60;;;23.60;99.90;;;;;;12629133;23;20189;-82
2023/06/21 06:14:25;;;;;;;13.10;11.50;;;24.00;99.90;;;;;;12628346;23;20476;-81
2023/06/21 06:19:47;;;;;;;31.90;28.58;;;24.20;12.60;;;;;;12628364;23;20175;-80
2023/06/21 06:25:10;;;;;;;14.57;11.65;;;24.30;1.00;;;;;;12621139;23;20866;-88
2023/06/21 06:30:31;;;;;;;12.52;10.85;;;24.40;1.00;;;;;;12626583;23;20175;-81
2023/06/21 06:35:53;;;;;;;17.73;11.52;;;24.40;1.00;;;;;;12608576;23;20170;-81
2023/06/21 06:41:15;;;;;;;14.75;11.70;;;24.60;1.00;;;;;;12628067;23;20166;-79
2023/06/21 06:46:36;;;;;;;13.27;11.60;;;25.10;1.00;;;;;;12628479;23;20195;-79
2023/06/21 06:51:57;;;;;;;12.45;11.18;;;25.20;1.00;;;;;;12605986;23;20193;-78
2023/06/21 06:57:19;;;;;;;12.27;10.90;;;25.20;1.00;;;;;;12628134;23;20277;-81
2023/06/21 07:02:45;;;;;;;14.05;11.32;;;25.40;1.00;;;;;;12626380;23;20197;-80
2023/06/21 07:08:07;;;;;;;17.13;12.90;;;25.60;1.00;;;;;;12627453;23;20174;-81
2023/06/21 07:13:28;;;;;;;12.60;11.18;;;25.70;1.00;;;;;;12625297;23;20197;-79
2023/06/21 07:18:50;;;;;;;16.52;12.80;;;25.60;1.00;;;;;;12605598;23;20175;-79
2023/06/21 07:24:12;;;;;;;13.30;11.48;;;25.60;1.00;;;;;;12626101;23;20199;-79
2023/06/21 07:29:33;;;;;;;16.85;12.48;;;25.50;1.00;;;;;;12598299;23;20210;-85
2023/06/21 07:34:54;;;;;;;22.23;12.85;;;25.40;1.00;;;;;;12620852;23;20174;-82
2023/06/21 07:40:15;;;;;;;14.35;12.80;;;26.00;1.00;;;;;;12601344;23;20178;-83
2023/06/21 07:45:37;;;;;;;22.33;16.27;;;26.50;1.00;;;;;;12620599;23;20199;-82
2023/06/21 07:50:58;;;;;;;22.33;15.20;;;26.60;1.00;;;;;;12596543;23;20171;-80
2023/06/21 07:56:19;;;;;;;20.83;13.02;;;26.60;1.00;;;;;;12620735;23;20249;-81
2023/06/21 08:01:41;;;;;;;13.48;12.07;;;27.00;1.00;;;;;;12621525;23;20202;-81
2023/06/21 08:07:02;;;;;;;18.33;14.57;;;27.50;1.00;;;;;;12621526;23;20194;-86
2023/06/21 08:12:25;;;;;;;15.32;11.88;;;27.90;1.00;;;;;;12576485;23;20373;-81
2023/06/21 08:17:46;;;;;;;17.98;12.45;;;28.20;1.00;;;;;;12621168;23;20163;-83
2023/06/21 08:23:08;;;;;;;12.77;10.98;;;28.30;99.90;;;;;;12683771;23;20252;-80
2023/06/21 08:28:30;;;;;;;13.02;10.93;;;28.40;99.90;;;;;;12620466;23;20182;-82
2023/06/21 08:33:52;;;;;;;13.60;11.93;;;28.80;99.90;;;;;;12642636;23;20166;-85
2023/06/21 08:39:13;;;;;;;12.25;9.98;;;29.30;99.90;;;;;;12623427;23;20175;-85
2023/06/21 08:44:34;;;;;;;14.70;12.00;;;29.50;99.90;;;;;;12602024;23;20199;-83
2023/06/21 08:49:58;;;;;;;12.20;11.00;;;29.50;99.90;;;;;;12580443;23;20186;-82
2023/06/21 08:55:23;;;;;;;14.13;10.35;;;29.10;99.90;;;;;;12621576;23;20213;-85
2023/06/21 09:00:50;;;;;;;15.88;10.98;;;28.80;99.90;;;;;;12621448;23;20221;-85
2023/06/21 09:06:15;;;;;;;10.65;9.50;;;28.60;99.90;;;;;;12599934;23;20282;-83
2023/06/21 09:11:38;;;;;;;11.63;10.35;;;28.40;99.90;;;;;;12599971;23;20221;-83
2023/06/21 09:17:00;;;;;;;11.27;9.95;;;29.30;99.90;;;;;;12580951;23;20245;-84
2023/06/21 09:22:27;;;;;;;9.90;8.85;;;30.10;99.90;;;;;;12600873;23;20197;-84
2023/06/21 09:27:48;;;;;;;8.77;7.90;;;30.70;99.90;;;;;;12599421;23;20182;-85
2023/06/21 09:33:10;;;;;;;8.18;7.28;;;31.30;99.90;;;;;;12578292;23;20182;-84
2023/06/21 09:38:33;;;;;;;12.95;10.50;;;31.20;99.90;;;;;;12599304;23;20179;-86
2023/06/21 09:43:55;;;;;;;12.40;9.15;;;31.40;99.90;;;;;;12688583;23;20214;-83
2023/06/21 09:49:16;;;;;;;9.32;8.43;;;31.40;99.90;;;;;;12601634;23;20163;-84
2023/06/21 09:54:41;;;;;;;12.65;9.45;;;31.20;99.90;;;;;;12582708;23;20182;-84
2023/06/21 10:00:07;;;;;;;32.97;20.05;;;30.90;99.90;;;;;;12601817;23;20560;-83
2023/06/21 10:05:31;;;;;;;12.80;9.50;;;30.40;99.90;;;;;;12622149;23;20198;-85
2023/06/21 10:10:53;;;;;;;11.48;8.50;;;30.30;99.90;;;;;;12601323;23;20493;-82
2023/06/21 10:16:18;;;;;;;42.53;17.42;;;30.00;99.90;;;;;;12601474;23;20336;-82
2023/06/21 10:21:40;;;;;;;65.32;14.25;;;29.60;99.90;;;;;;12601592;23;20221;-82
2023/06/21 10:27:06;;;;;;;37.17;12.43;;;29.40;99.90;;;;;;12601138;23;20206;-81
2023/06/21 10:32:31;;;;;;;33.47;12.45;;;29.30;99.90;;;;;;12620540;23;20186;-81
2023/06/21 10:38:03;;;;;;;17.17;7.78;;;29.00;99.90;;;;;;12601873;23;20206;-83
2023/06/21 10:43:28;;;;;;;13.88;7.13;;;28.70;99.90;;;;;;12602236;23;20182;-80
2023/06/21 10:48:50;;;;;;;15.48;7.53;;;28.40;99.90;;;;;;12621157;23;20183;-80
2023/06/21 10:54:12;;;;;;;79.40;12.23;;;28.20;99.90;;;;;;12622451;23;20410;-81
2023/06/21 10:59:34;;;;;;;42.80;16.58;;;28.00;99.90;;;;;;12622731;23;20215;-85
2023/06/21 11:05:21;;;;;;;50.80;10.55;;;28.10;99.90;;;;;;12622206;23;20501;-84
2023/06/21 11:10:50;;;;;;;13.57;6.50;;;28.40;99.90;;;;;;12623405;23;20177;-90
2023/06/21 11:16:16;;;;;;;12.15;7.35;;;28.30;99.90;;;;;;12622708;23;20258;-82
2023/06/21 11:21:44;;;;;;;14.20;7.32;;;28.00;99.90;;;;;;12580817;23;20190;-84
2023/06/21 11:27:07;;;;;;;23.52;18.17;;;27.60;99.90;;;;;;12621786;23;20198;-82
2023/06/21 11:32:29;;;;;;;5.85;5.28;;;27.40;99.90;;;;;;12620369;23;20194;-83
2023/06/21 11:37:56;;;;;;;6.32;5.35;;;27.30;99.90;;;;;;12581029;23;20183;-81
2023/06/21 11:43:18;;;;;;;7.28;5.03;;;27.10;99.90;;;;;;12618963;23;20170;-81
2023/06/21 11:48:40;;;;;;;6.95;5.88;;;27.00;99.90;;;;;;12581945;23;20183;-83
2023/06/21 11:54:01;;;;;;;9.70;7.72;;;26.90;99.90;;;;;;12582459;23;20204;-84
2023/06/21 11:59:26;;;;;;;9.45;5.90;;;26.60;99.90;;;;;;12581886;23;20211;-83
2023/06/21 12:04:49;;;;;;;8.43;5.70;;;24.30;1.00;;;;;;12621008;23;20302;-83
2023/06/21 12:10:11;;;;;;;7.90;5.53;;;26.20;99.90;;;;;;12600019;23;20245;-80
2023/06/21 12:15:33;;;;;;;7.70;6.32;;;26.10;99.90;;;;;;12601087;23;20170;-81
2023/06/21 12:20:56;;;;;;;7.13;5.82;;;26.10;99.90;;;;;;12580450;23;20190;-82
2023/06/21 12:26:18;;;;;;;8.02;5.57;;;26.20;99.90;;;;;;12599717;23;20207;-80
2023/06/21 12:31:43;;;;;;;10.10;6.40;;;26.20;99.90;;;;;;12598919;23;20380;-82
2023/06/21 12:37:05;;;;;;;7.82;6.90;;;26.30;99.90;;;;;;12620484;23;20425;-81
2023/06/21 12:42:32;;;;;;;9.60;6.80;;;26.30;1.00;;;;;;12621058;23;20237;-81
2023/06/21 12:47:54;;;;;;;13.75;6.80;;;26.30;1.00;;;;;;12620712;23;20194;-81
2023/06/21 12:53:24;;;;;;;8.75;7.60;;;26.20;1.00;;;;;;12599391;23;20181;-80
2023/06/21 12:58:45;;;;;;;8.15;7.32;;;26.10;1.00;;;;;;12620714;23;20183;-81
2023/06/21 13:04:11;;;;;;;9.35;7.85;;;25.90;99.90;;;;;;12726246;23;20199;-81
2023/06/21 13:09:34;;;;;;;7.88;7.07;;;25.60;1.00;;;;;;12599299;23;20170;-80
2023/06/21 13:14:55;;;;;;;8.57;7.28;;;;;;;;;;12600305;23;20519;-80
2023/06/21 13:20:17;;;;;;;8.50;7.43;;;25.20;1.00;;;;;;12600783;23;20189;-80
2023/06/21 13:25:38;;;;;;;9.52;7.03;;;24.90;99.90;;;;;;12727930;23;20392;-80
2023/06/21 13:31:00;;;;;;;8.25;7.45;;;24.80;1.00;;;;;;12588439;23;20570;-81
2023/06/21 13:36:23;;;;;;;8.52;7.68;;;;;;;;;;12621725;23;20731;-82
2023/06/21 13:41:46;;;;;;;9.02;8.13;;;24.90;99.90;;;;;;12601758;23;20186;-82
2023/06/21 13:47:09;;;;;;;8.55;7.65;;;25.00;51.40;;;;;;12622856;23;20190;-81
2023/06/21 13:52:34;;;;;;;7.90;7.10;;;24.80;1.00;;;;;;12620556;23;20185;-81
2023/06/21 13:57:59;;;;;;;7.78;6.82;;;25.10;1.00;;;;;;12601278;23;20182;-80
2023/06/21 14:03:22;;;;;;;6.95;6.35;;;24.70;99.90;;;;;;12622792;23;20316;-79
2023/06/21 14:08:46;;;;;;;8.13;6.85;;;25.10;1.00;;;;;;12621030;23;20170;-81
2023/06/21 14:14:09;;;;;;;6.93;6.32;;;25.10;1.00;;;;;;12729316;23;20205;-82
2023/06/21 14:19:30;;;;;;;10.35;7.47;;;25.10;1.00;;;;;;12601586;23;20376;-82
2023/06/21 14:24:51;;;;;;;7.60;6.90;;;25.00;99.20;;;;;;12601119;23;20286;-81
2023/06/21 14:30:17;;;;;;;9.32;8.38;;;25.10;1.00;;;;;;12600404;23;20171;-80
2023/06/21 14:35:38;;;;;;;13.95;7.30;;;25.10;1.00;;;;;;12622129;23;20355;-80
2023/06/21 14:40:59;;;;;;;8.50;7.60;;;25.30;1.00;;;;;;12622264;23;20265;-78
2023/06/21 14:46:21;;;;;;;16.83;10.90;;;25.20;99.90;;;;;;12601601;23;20426;-81
2023/06/21 14:51:42;;;;;;;15.52;9.88;;;25.70;99.90;;;;;;12621452;23;20400;-81
2023/06/21 14:57:03;;;;;;;11.50;9.35;;;25.80;99.90;;;;;;12581121;23;20488;-79
2023/06/21 15:02:25;;;;;;;8.50;7.55;;;25.90;99.90;;;;;;12581871;23;20203;-78
2023/06/21 15:07:46;;;;;;;9.25;8.35;;;26.10;99.90;;;;;;12623643;23;20596;-82
2023/06/21 15:13:08;;;;;;;14.35;8.25;;;26.00;99.90;;;;;;12606977;23;20182;-82
2023/06/21 15:18:29;;;;;;;8.32;7.50;;;26.40;99.90;;;;;;12626229;23;20167;-82
2023/06/21 15:23:50;;;;;;;9.05;8.15;;;26.20;99.90;;;;;;12626137;23;20830;-83
2023/06/21 15:29:11;;;;;;;11.38;9.35;;;26.60;78.70;;;;;;12732251;23;20175;-83
2023/06/21 15:34:33;;;;;;;8.90;8.10;;;26.80;28.60;;;;;;12584479;23;20194;-83
2023/06/21 15:39:56;;;;;;;9.70;8.70;;;26.60;1.00;;;;;;12604218;23;20182;-85
2023/06/21 15:45:17;;;;;;;11.27;9.13;;;26.60;99.90;;;;;;12607350;23;20210;-84
2023/06/21 15:50:38;;;;;;;11.88;9.85;;;26.50;85.70;;;;;;12608358;23;20170;-85
2023/06/21 15:56:00;;;;;;;10.82;9.25;;;26.40;99.90;;;;;;12607187;23;20383;-84
2023/06/21 16:01:21;;;;;;;10.90;9.75;;;26.20;1.00;;;;;;12587763;23;20194;-85
2023/06/21 16:06:43;;;;;;;12.20;9.60;;;26.40;1.00;;;;;;12586027;23;20199;-84
2023/06/21 16:12:04;;;;;;;9.43;8.35;;;26.80;1.00;;;;;;12607951;23;20147;-84
2023/06/21 16:17:26;;;;;;;13.48;9.23;;;26.70;1.00;;;;;;12587112;23;20205;-83
2023/06/21 16:22:47;;;;;;;11.65;10.50;;;26.10;1.00;;;;;;12587653;23;20261;-84
2023/06/21 16:28:08;;;;;;;21.08;11.23;;;25.90;1.00;;;;;;12627563;23;20225;-84
2023/06/21 16:33:30;;;;;;;12.18;10.73;;;25.60;1.00;;;;;;12606633;23;20177;-83
2023/06/21 16:38:51;;;;;;;15.02;11.75;;;25.50;99.90;;;;;;12627517;23;20166;-83
2023/06/21 16:44:13;;;;;;;13.82;11.95;;;25.40;1.00;;;;;;12627575;23;20190;-84
2023/06/21 16:49:34;;;;;;;14.45;11.60;;;25.40;99.90;;;;;;12606544;23;20175;-85
2023/06/21 16:54:55;;;;;;;12.15;10.93;;;25.40;99.90;;;;;;12627785;23;20537;-85
2023/06/21 17:00:17;;;;;;;15.85;12.63;;;25.50;1.00;;;;;;12627130;23;20198;-84
2023/06/21 17:05:40;;;;;;;15.85;14.23;;;25.30;1.00;;;;;;12606592;23;20191;-84
2023/06/21 17:11:01;;;;;;;16.15;14.35;;;25.10;1.00;;;;;;12586930;23;20190;-84
2023/06/21 17:16:22;;;;;;;15.68;14.25;;;25.30;99.90;;;;;;12606601;23;20366;-85
2023/06/21 17:21:44;;;;;;;15.68;14.07;;;24.80;99.90;;;;;;12606548;23;20170;-84
2023/06/21 17:27:06;;;;;;;15.55;13.38;;;24.80;1.00;;;;;;12606835;23;20175;-84
2023/06/21 17:32:27;;;;;;;14.98;13.52;;;24.90;1.00;;;;;;12626733;23;20238;-84
2023/06/21 17:37:49;;;;;;;15.55;13.55;;;24.60;1.00;;;;;;12714534;23;20167;-85
2023/06/21 17:43:10;;;;;;;15.95;14.20;;;24.60;1.00;;;;;;12627099;23;20572;-84
2023/06/21 17:48:32;;;;;;;16.63;14.93;;;;;;;;;;12625492;23;20394;-84
2023/06/21 17:53:54;;;;;;;16.88;15.10;;;24.40;99.90;;;;;;12606594;23;20171;-84
2023/06/21 17:59:15;;;;;;;14.57;13.07;;;24.30;1.00;;;;;;12605395;23;20202;-84
2023/06/21 18:04:36;;;;;;;12.73;11.52;;;24.10;1.00;;;;;;12609214;23;20189;-83
2023/06/21 18:09:58;;;;;;;12.18;10.40;;;24.00;1.00;;;;;;12629093;23;20492;-84
2023/06/21 18:15:19;;;;;;;13.40;9.27;;;23.80;1.00;;;;;;12608225;23;20197;-84
2023/06/21 18:20:41;;;;;;;10.20;8.68;;;23.60;13.20;;;;;;12628573;23;20167;-82
2023/06/21 18:26:03;;;;;;;64.18;53.17;;;23.60;1.00;;;;;;12629387;23;20190;-84
2023/06/21 18:31:24;;;;;;;29.55;26.13;;;23.30;99.90;;;;;;12608060;23;20171;-83
2023/06/21 18:36:46;;;;;;;27.65;24.75;;;23.30;1.00;;;;;;12628994;23;20182;-83
2023/06/21 18:42:07;;;;;;;13.15;10.63;;;23.10;1.00;;;;;;12608053;23;20166;-85
2023/06/21 18:47:28;;;;;;;8.52;7.63;;;23.10;1.00;;;;;;12628893;23;20397;-85
2023/06/21 18:52:50;;;;;;;6.93;6.13;;;23.00;1.00;;;;;;12736218;23;20178;-84
2023/06/21 18:58:12;;;;;;;6.57;5.50;;;22.90;1.00;;;;;;12608545;23;20171;-86
2023/06/21 19:03:33;;;;;;;7.38;6.60;;;22.80;1.00;;;;;;12628381;23;20362;-83
2023/06/21 19:08:55;;;;;;;6.07;5.47;;;22.70;64.40;;;;;;12629614;23;20190;-82
2023/06/21 19:14:16;;;;;;;5.95;5.10;;;22.70;1.00;;;;;;12587126;23;20178;-81
2023/06/21 19:19:38;;;;;;;8.63;5.55;;;22.60;1.00;;;;;;12608436;23;20181;-84
2023/06/21 19:24:59;;;;;;;6.30;5.70;;;22.50;99.90;;;;;;12607716;23;20198;-82
2023/06/21 19:30:21;;;;;;;6.32;5.72;;;22.50;1.00;;;;;;12627734;23;20174;-84
2023/06/21 19:35:42;;;;;;;6.57;5.43;;;22.20;99.90;;;;;;12587521;23;20230;-83
2023/06/21 19:41:04;;;;;;;31.02;26.05;;;22.10;99.90;;;;;;12587811;23;20245;-84
2023/06/21 19:46:25;;;;;;;21.83;17.95;;;22.10;1.00;;;;;;12606612;23;20397;-83
2023/06/21 19:51:47;;;;;;;12.07;9.82;;;22.10;1.00;;;;;;12627717;23;20241;-84
2023/06/21 19:57:08;;;;;;;9.50;6.85;;;22.00;1.00;;;;;;12587382;23;20527;-83
2023/06/21 20:02:29;;;;;;;9.00;7.97;;;21.90;99.90;;;;;;12606782;23;20265;-84
2023/06/21 20:07:50;;;;;;;6.60;5.95;;;21.90;1.00;;;;;;12607284;23;20273;-85
2023/06/21 20:13:12;;;;;;;7.18;6.43;;;21.90;1.00;;;;;;12605195;23;20177;-83
2023/06/21 20:18:33;;;;;;;6.93;5.50;;;21.70;99.90;;;;;;12606348;23;20171;-84
2023/06/21 20:23:54;;;;;;;6.10;5.60;;;21.60;1.00;;;;;;12607667;23;20182;-83
2023/06/21 20:29:16;;;;;;;6.18;5.40;;;;;;;;;;12587331;23;20227;-83
2023/06/21 20:34:38;;;;;;;6.25;5.65;;;21.40;99.90;;;;;;12607637;23;20576;-83
2023/06/21 20:39:59;;;;;;;6.75;5.70;;;21.30;1.00;;;;;;12607738;23;20176;-83
2023/06/21 20:45:21;;;;;;;21.38;17.10;;;21.30;1.00;;;;;;12607477;23;20209;-83
2023/06/21 20:50:43;;;;;;;42.08;32.33;;;21.30;1.00;;;;;;12627103;23;20216;-85
2023/06/21 20:56:04;;;;;;;29.88;23.30;;;21.30;1.00;;;;;;12606993;23;20170;-83
2023/06/21 21:01:25;;;;;;;12.25;10.45;;;21.20;1.00;;;;;;12607482;23;20213;-84
2023/06/21 21:06:47;;;;;;;7.47;6.65;;;21.10;99.90;;;;;;12627838;23;20198;-83
2023/06/21 21:12:08;;;;;;;8.43;6.13;;;21.10;99.90;;;;;;12607114;23;20171;-83
2023/06/21 21:17:29;;;;;;;6.70;6.10;;;21.10;99.90;;;;;;12587216;23;20178;-83
2023/06/21 21:22:51;;;;;;;8.30;5.45;;;21.00;99.90;;;;;;12607213;23;20170;-85
2023/06/21 21:28:13;;;;;;;6.72;6.05;;;21.20;1.00;;;;;;12607217;23;20473;-83
2023/06/21 21:33:34;;;;;;;6.82;5.78;;;20.90;99.90;;;;;;12587245;23;20166;-83
2023/06/21 21:38:57;;;;;;;7.88;6.95;;;;;;;;;;12629247;23;20163;-83
2023/06/21 21:44:21;;;;;;;6.82;6.13;;;20.90;99.90;;;;;;12629340;23;20233;-83
2023/06/21 21:49:45;;;;;;;6.10;5.40;;;;;;;;;;12595069;23;20213;-83
2023/06/21 21:55:08;;;;;;;6.93;6.05;;;20.80;1.00;;;;;;12617797;23;20167;-83
2023/06/21 22:00:34;;;;;;;7.63;6.05;;;20.70;1.00;;;;;;12601200;23;20203;-83
2023/06/21 22:05:56;;;;;;;8.85;6.22;;;20.50;1.00;;;;;;12600282;23;20224;-83
2023/06/21 22:11:18;;;;;;;7.35;6.10;;;20.50;1.00;;;;;;12596316;23;20194;-85
2023/06/21 22:16:40;;;;;;;7.80;6.20;;;;;;;;;;12640699;23;20186;-82
2023/06/21 22:22:01;;;;;;;9.00;6.43;;;20.40;1.00;;;;;;12602730;23;20171;-82
2023/06/21 22:27:23;;;;;;;6.05;5.53;;;20.30;1.00;;;;;;12619443;23;20191;-85
2023/06/21 22:32:45;;;;;;;8.30;6.43;;;20.30;1.00;;;;;;12619337;23;20162;-84
2023/06/21 22:38:06;;;;;;;5.95;5.32;;;20.30;99.90;;;;;;12641944;23;20193;-85
2023/06/21 22:43:28;;;;;;;6.93;5.55;;;20.20;1.00;;;;;;12635679;23;20462;-84
2023/06/21 22:49:00;;;;;;;6.30;5.68;;;20.20;1.00;;;;;;12632934;23;20190;-83
2023/06/21 22:54:22;;;;;;;7.95;5.82;;;;;;;;;;12735946;23;20194;-84
2023/06/21 22:59:44;;;;;;;7.68;5.55;;;20.20;1.00;;;;;;12629238;23;20206;-84
2023/06/21 23:05:05;;;;;;;9.70;5.13;;;20.20;99.90;;;;;;12608520;23;20166;-84
2023/06/21 23:10:28;;;;;;;6.40;4.68;;;20.10;99.90;;;;;;12735186;23;20526;-84
2023/06/21 23:15:50;;;;;;;5.55;4.85;;;20.20;1.00;;;;;;12587906;23;20278;-83
2023/06/21 23:21:12;;;;;;;9.30;5.53;;;19.90;1.00;;;;;;12608532;23;20397;-84
2023/06/21 23:26:33;;;;;;;7.30;4.63;;;19.90;1.00;;;;;;12607381;23;20198;-84
2023/06/21 23:31:55;;;;;;;5.03;4.22;;;;;;;;;;12608786;23;20189;-83
2023/06/21 23:37:16;;;;;;;6.25;4.68;;;;;;;;;;12628626;23;20170;-84
2023/06/21 23:42:38;;;;;;;5.03;4.50;;;;;;;;;;12629262;23;20453;-83
2023/06/21 23:48:00;;;;;;;5.13;4.10;;;;;;;;;;12713825;23;20206;-83
2023/06/21 23:53:21;;;;;;;6.45;4.63;;;;;;;;;;12607818;23;20174;-84
2023/06/21 23:58:43;;;;;;;5.70;4.28;;;;;;;;;;12607458;23;20181;-84
